sensor_id;sensor_type;location;lat;lon;timestamp;pressure;altitude;pressure_sealevel;temperature;humidity
9672;BME280;4874;43.568;27.824;2023-04-27T00:00:41;98470.41;;;8.92;100.00
9672;BME280;4874;43.568;27.824;2023-04-27T00:03:08;98467.59;;;8.94;100.00
9672;BME280;4874;43.568;27.824;2023-04-27T00:05:35;98477.91;;;8.97;100.00
9672;BME280;4874;43.568;27.824;2023-04-27T00:08:02;98470.56;;;8.91;100.00
9672;BME280;4874;43.568;27.824;2023-04-27T00:10:28;98471.97;;;8.85;100.00
9672;BME280;4874;43.568;27.824;2023-04-27T00:12:55;98472.06;;;8.93;100.00
9672;BME280;4874;43.568;27.824;2023-04-27T00:15:22;98468.59;;;8.93;100.00
9672;BME280;4874;43.568;27.824;2023-04-27T00:17:48;98471.66;;;8.88;100.00
9672;BME280;4874;43.568;27.824;2023-04-27T00:20:15;98468.31;;;8.86;100.00
9672;BME280;4874;43.568;27.824;2023-04-27T00:22:41;98469.75;;;8.81;100.00
9672;BME280;4874;43.568;27.824;2023-04-27T00:25:08;98473.06;;;8.83;100.00
9672;BME280;4874;43.568;27.824;2023-04-27T00:27:34;98473.13;;;8.73;100.00
9672;BME280;4874;43.568;27.824;2023-04-27T00:30:01;98472.28;;;8.73;100.00
9672;BME280;4874;43.568;27.824;2023-04-27T00:32:28;98468.53;;;8.66;100.00
9672;BME280;4874;43.568;27.824;2023-04-27T00:34:55;98465.34;;;8.62;100.00
9672;BME280;4874;43.568;27.824;2023-04-27T00:37:21;98467.03;;;8.54;100.00
9672;BME280;4874;43.568;27.824;2023-04-27T00:39:48;98470.56;;;8.45;100.00
9672;BME280;4874;43.568;27.824;2023-04-27T00:42:14;98484.63;;;8.45;100.00
9672;BME280;4874;43.568;27.824;2023-04-27T00:44:45;98477.78;;;8.52;100.00
9672;BME280;4874;43.568;27.824;2023-04-27T00:47:12;98480.72;;;8.49;100.00
9672;BME280;4874;43.568;27.824;2023-04-27T00:49:39;98490.03;;;8.44;100.00
9672;BME280;4874;43.568;27.824;2023-04-27T00:52:06;98488.81;;;8.28;100.00
9672;BME280;4874;43.568;27.824;2023-04-27T00:54:33;98488.00;;;8.38;100.00
9672;BME280;4874;43.568;27.824;2023-04-27T00:56:59;98501.91;;;8.30;100.00
9672;BME280;4874;43.568;27.824;2023-04-27T00:59:26;98493.03;;;8.31;100.00
9672;BME280;4874;43.568;27.824;2023-04-27T01:01:53;98500.81;;;8.32;100.00
9672;BME280;4874;43.568;27.824;2023-04-27T01:04:20;98515.81;;;8.32;100.00
9672;BME280;4874;43.568;27.824;2023-04-27T01:06:47;98498.84;;;8.15;100.00
9672;BME280;4874;43.568;27.824;2023-04-27T01:09:13;98512.06;;;8.15;100.00
9672;BME280;4874;43.568;27.824;2023-04-27T01:11:41;98509.69;;;8.12;100.00
9672;BME280;4874;43.568;27.824;2023-04-27T01:14:08;98516.63;;;8.04;100.00
9672;BME280;4874;43.568;27.824;2023-04-27T01:16:35;98520.25;;;8.03;100.00
9672;BME280;4874;43.568;27.824;2023-04-27T01:19:02;98519.00;;;7.97;100.00
9672;BME280;4874;43.568;27.824;2023-04-27T01:21:29;98519.84;;;7.98;100.00
9672;BME280;4874;43.568;27.824;2023-04-27T01:23:56;98527.34;;;8.02;100.00
9672;BME280;4874;43.568;27.824;2023-04-27T01:26:23;98525.00;;;7.99;100.00
9672;BME280;4874;43.568;27.824;2023-04-27T01:28:49;98529.72;;;7.96;100.00
9672;BME280;4874;43.568;27.824;2023-04-27T01:31:16;98530.28;;;7.90;100.00
9672;BME280;4874;43.568;27.824;2023-04-27T01:33:42;98525.81;;;7.81;100.00
9672;BME280;4874;43.568;27.824;2023-04-27T01:36:09;98529.69;;;7.77;100.00
9672;BME280;4874;43.568;27.824;2023-04-27T01:38:36;98519.13;;;7.77;100.00
9672;BME280;4874;43.568;27.824;2023-04-27T01:41:03;98529.31;;;7.81;100.00
9672;BME280;4874;43.568;27.824;2023-04-27T01:43:30;98533.59;;;7.82;100.00
9672;BME280;4874;43.568;27.824;2023-04-27T01:46:07;98527.91;;;7.77;100.00
9672;BME280;4874;43.568;27.824;2023-04-27T01:48:34;98537.91;;;7.83;100.00
9672;BME280;4874;43.568;27.824;2023-04-27T01:51:01;98534.44;;;7.83;100.00
9672;BME280;4874;43.568;27.824;2023-04-27T01:53:28;98535.84;;;7.96;100.00
9672;BME280;4874;43.568;27.824;2023-04-27T01:55:54;98537.66;;;7.96;100.00
9672;BME280;4874;43.568;27.824;2023-04-27T01:58:21;98542.53;;;8.00;100.00
9672;BME280;4874;43.568;27.824;2023-04-27T02:00:48;98543.63;;;7.98;100.00
9672;BME280;4874;43.568;27.824;2023-04-27T02:03:14;98550.47;;;8.00;100.00
9672;BME280;4874;43.568;27.824;2023-04-27T02:05:41;98543.63;;;8.07;100.00
9672;BME280;4874;43.568;27.824;2023-04-27T02:08:08;98546.41;;;8.06;100.00
9672;BME280;4874;43.568;27.824;2023-04-27T02:10:35;98541.09;;;7.87;100.00
9672;BME280;4874;43.568;27.824;2023-04-27T02:13:01;98540.88;;;8.09;100.00
9672;BME280;4874;43.568;27.824;2023-04-27T02:15:28;98547.41;;;8.05;100.00
9672;BME280;4874;43.568;27.824;2023-04-27T02:17:54;98544.19;;;8.11;100.00
9672;BME280;4874;43.568;27.824;2023-04-27T02:20:21;98545.00;;;8.21;100.00
9672;BME280;4874;43.568;27.824;2023-04-27T02:22:48;98548.38;;;8.13;100.00
9672;BME280;4874;43.568;27.824;2023-04-27T02:25:14;98551.97;;;8.12;100.00
9672;BME280;4874;43.568;27.824;2023-04-27T02:27:41;98549.75;;;8.08;100.00
9672;BME280;4874;43.568;27.824;2023-04-27T02:30:09;98551.72;;;8.15;100.00
9672;BME280;4874;43.568;27.824;2023-04-27T02:32:36;98552.72;;;8.24;100.00
9672;BME280;4874;43.568;27.824;2023-04-27T02:35:04;98553.38;;;8.16;100.00
9672;BME280;4874;43.568;27.824;2023-04-27T02:37:30;98555.75;;;8.10;100.00
9672;BME280;4874;43.568;27.824;2023-04-27T02:39:57;98545.59;;;8.05;100.00
9672;BME280;4874;43.568;27.824;2023-04-27T02:42:24;98546.28;;;7.98;100.00
9672;BME280;4874;43.568;27.824;2023-04-27T02:44:50;98551.13;;;8.02;100.00
9672;BME280;4874;43.568;27.824;2023-04-27T02:47:17;98546.72;;;7.93;100.00
9672;BME280;4874;43.568;27.824;2023-04-27T02:49:44;98553.63;;;8.04;100.00
9672;BME280;4874;43.568;27.824;2023-04-27T02:52:11;98564.22;;;7.85;100.00
9672;BME280;4874;43.568;27.824;2023-04-27T02:54:37;98561.84;;;7.91;100.00
9672;BME280;4874;43.568;27.824;2023-04-27T02:57:04;98567.28;;;7.90;100.00
9672;BME280;4874;43.568;27.824;2023-04-27T02:59:31;98567.28;;;7.90;100.00
9672;BME280;4874;43.568;27.824;2023-04-27T03:01:58;98572.56;;;7.90;100.00
9672;BME280;4874;43.568;27.824;2023-04-27T03:04:24;98583.53;;;7.85;100.00
9672;BME280;4874;43.568;27.824;2023-04-27T03:06:51;98593.16;;;7.86;100.00
9672;BME280;4874;43.568;27.824;2023-04-27T03:09:17;98596.75;;;7.76;100.00
9672;BME280;4874;43.568;27.824;2023-04-27T03:11:44;98603.16;;;7.83;100.00
9672;BME280;4874;43.568;27.824;2023-04-27T03:14:10;98607.31;;;7.76;100.00
9672;BME280;4874;43.568;27.824;2023-04-27T03:16:38;98612.63;;;7.95;100.00
9672;BME280;4874;43.568;27.824;2023-04-27T03:19:05;98612.16;;;7.71;100.00
9672;BME280;4874;43.568;27.824;2023-04-27T03:21:32;98609.91;;;7.66;100.00
9672;BME280;4874;43.568;27.824;2023-04-27T03:23:59;98613.94;;;7.61;100.00
9672;BME280;4874;43.568;27.824;2023-04-27T03:26:25;98628.53;;;7.65;100.00
9672;BME280;4874;43.568;27.824;2023-04-27T03:28:52;98617.59;;;7.69;100.00
9672;BME280;4874;43.568;27.824;2023-04-27T03:31:18;98625.31;;;7.61;100.00
9672;BME280;4874;43.568;27.824;2023-04-27T03:33:45;98631.19;;;7.65;100.00
9672;BME280;4874;43.568;27.824;2023-04-27T03:36:11;98622.38;;;7.55;100.00
9672;BME280;4874;43.568;27.824;2023-04-27T03:38:38;98619.38;;;7.69;100.00
9672;BME280;4874;43.568;27.824;2023-04-27T03:41:04;98629.28;;;7.86;100.00
9672;BME280;4874;43.568;27.824;2023-04-27T03:43:31;98630.81;;;7.79;100.00
9672;BME280;4874;43.568;27.824;2023-04-27T03:45:58;98630.34;;;7.64;100.00
9672;BME280;4874;43.568;27.824;2023-04-27T03:48:24;98626.72;;;7.56;100.00
9672;BME280;4874;43.568;27.824;2023-04-27T03:50:51;98627.38;;;7.58;100.00
9672;BME280;4874;43.568;27.824;2023-04-27T03:53:18;98618.59;;;7.48;100.00
9672;BME280;4874;43.568;27.824;2023-04-27T03:55:44;98626.81;;;7.54;100.00
9672;BME280;4874;43.568;27.824;2023-04-27T03:58:11;98633.63;;;7.47;100.00
9672;BME280;4874;43.568;27.824;2023-04-27T04:00:38;98634.84;;;7.43;100.00
9672;BME280;4874;43.568;27.824;2023-04-27T04:03:05;98627.34;;;7.39;100.00
9672;BME280;4874;43.568;27.824;2023-04-27T04:05:33;98624.66;;;7.29;100.00
9672;BME280;4874;43.568;27.824;2023-04-27T04:07:59;98626.63;;;7.37;100.00
9672;BME280;4874;43.568;27.824;2023-04-27T04:10:26;98635.78;;;7.33;100.00
9672;BME280;4874;43.568;27.824;2023-04-27T04:12:53;98624.94;;;7.36;100.00
9672;BME280;4874;43.568;27.824;2023-04-27T04:15:19;98625.38;;;7.41;100.00
9672;BME280;4874;43.568;27.824;2023-04-27T04:17:46;98632.09;;;7.45;100.00
9672;BME280;4874;43.568;27.824;2023-04-27T04:20:14;98615.31;;;7.55;100.00
9672;BME280;4874;43.568;27.824;2023-04-27T04:22:41;98624.88;;;7.47;100.00
9672;BME280;4874;43.568;27.824;2023-04-27T04:25:08;98633.38;;;7.50;100.00
9672;BME280;4874;43.568;27.824;2023-04-27T04:27:35;98631.56;;;7.51;100.00
9672;BME280;4874;43.568;27.824;2023-04-27T04:30:03;98634.75;;;7.54;100.00
9672;BME280;4874;43.568;27.824;2023-04-27T04:32:32;98625.81;;;7.46;100.00
9672;BME280;4874;43.568;27.824;2023-04-27T04:34:59;98632.50;;;7.50;100.00
9672;BME280;4874;43.568;27.824;2023-04-27T04:37:26;98637.28;;;7.56;100.00
9672;BME280;4874;43.568;27.824;2023-04-27T04:39:53;98637.00;;;7.59;100.00
9672;BME280;4874;43.568;27.824;2023-04-27T04:42:20;98631.94;;;7.86;100.00
9672;BME280;4874;43.568;27.824;2023-04-27T04:44:46;98644.34;;;7.95;100.00
9672;BME280;4874;43.568;27.824;2023-04-27T04:47:13;98636.38;;;7.76;100.00
9672;BME280;4874;43.568;27.824;2023-04-27T04:49:39;98626.50;;;7.78;100.00
9672;BME280;4874;43.568;27.824;2023-04-27T04:52:06;98637.63;;;7.81;100.00
9672;BME280;4874;43.568;27.824;2023-04-27T04:54:32;98644.72;;;7.81;100.00
9672;BME280;4874;43.568;27.824;2023-04-27T04:56:59;98647.88;;;7.75;100.00
9672;BME280;4874;43.568;27.824;2023-04-27T04:59:27;98649.88;;;7.82;100.00
9672;BME280;4874;43.568;27.824;2023-04-27T05:01:56;98645.16;;;7.95;100.00
9672;BME280;4874;43.568;27.824;2023-04-27T05:04:23;98651.09;;;7.78;100.00
9672;BME280;4874;43.568;27.824;2023-04-27T05:06:50;98657.13;;;7.90;100.00
9672;BME280;4874;43.568;27.824;2023-04-27T05:09:16;98651.28;;;7.96;100.00
9672;BME280;4874;43.568;27.824;2023-04-27T05:11:43;98652.84;;;8.08;100.00
9672;BME280;4874;43.568;27.824;2023-04-27T05:14:09;98656.66;;;8.24;100.00
9672;BME280;4874;43.568;27.824;2023-04-27T05:16:36;98651.53;;;8.32;100.00
9672;BME280;4874;43.568;27.824;2023-04-27T05:19:03;98650.34;;;8.16;100.00
9672;BME280;4874;43.568;27.824;2023-04-27T05:21:31;98653.56;;;8.19;100.00
9672;BME280;4874;43.568;27.824;2023-04-27T05:23:58;98646.91;;;8.25;100.00
9672;BME280;4874;43.568;27.824;2023-04-27T05:26:25;98649.09;;;8.20;100.00
9672;BME280;4874;43.568;27.824;2023-04-27T05:28:52;98660.72;;;8.38;100.00
9672;BME280;4874;43.568;27.824;2023-04-27T05:31:18;98638.16;;;8.44;100.00
9672;BME280;4874;43.568;27.824;2023-04-27T05:33:45;98644.28;;;8.54;100.00
9672;BME280;4874;43.568;27.824;2023-04-27T05:36:12;98653.34;;;8.51;100.00
9672;BME280;4874;43.568;27.824;2023-04-27T05:38:38;98646.81;;;8.55;100.00
9672;BME280;4874;43.568;27.824;2023-04-27T05:41:05;98658.22;;;8.65;100.00
9672;BME280;4874;43.568;27.824;2023-04-27T05:43:32;98649.03;;;8.79;100.00
9672;BME280;4874;43.568;27.824;2023-04-27T05:46:00;98651.09;;;8.85;100.00
9672;BME280;4874;43.568;27.824;2023-04-27T05:48:27;98638.53;;;9.06;100.00
9672;BME280;4874;43.568;27.824;2023-04-27T05:50:59;98654.13;;;9.09;100.00
9672;BME280;4874;43.568;27.824;2023-04-27T05:53:27;98659.13;;;9.21;100.00
9672;BME280;4874;43.568;27.824;2023-04-27T05:55:54;98665.97;;;9.61;100.00
9672;BME280;4874;43.568;27.824;2023-04-27T05:58:21;98667.47;;;9.26;100.00
9672;BME280;4874;43.568;27.824;2023-04-27T06:00:48;98656.97;;;9.44;100.00
9672;BME280;4874;43.568;27.824;2023-04-27T06:03:15;98660.88;;;9.77;100.00
9672;BME280;4874;43.568;27.824;2023-04-27T06:05:41;98658.66;;;9.72;100.00
9672;BME280;4874;43.568;27.824;2023-04-27T06:08:08;98667.09;;;9.58;100.00
9672;BME280;4874;43.568;27.824;2023-04-27T06:10:34;98665.72;;;9.44;100.00
9672;BME280;4874;43.568;27.824;2023-04-27T06:13:02;98651.13;;;9.40;100.00
9672;BME280;4874;43.568;27.824;2023-04-27T06:15:28;98659.00;;;9.60;100.00
9672;BME280;4874;43.568;27.824;2023-04-27T06:17:55;98654.66;;;9.86;100.00
9672;BME280;4874;43.568;27.824;2023-04-27T06:20:22;98647.25;;;9.89;100.00
9672;BME280;4874;43.568;27.824;2023-04-27T06:22:48;98652.13;;;9.94;100.00
9672;BME280;4874;43.568;27.824;2023-04-27T06:25:15;98662.84;;;10.02;100.00
9672;BME280;4874;43.568;27.824;2023-04-27T06:27:41;98656.66;;;9.84;100.00
9672;BME280;4874;43.568;27.824;2023-04-27T06:30:08;98657.00;;;9.98;100.00
9672;BME280;4874;43.568;27.824;2023-04-27T06:32:35;98670.06;;;10.36;100.00
9672;BME280;4874;43.568;27.824;2023-04-27T06:35:02;98649.59;;;10.46;100.00
9672;BME280;4874;43.568;27.824;2023-04-27T06:37:28;98666.03;;;10.32;100.00
9672;BME280;4874;43.568;27.824;2023-04-27T06:39:55;98661.38;;;10.17;100.00
9672;BME280;4874;43.568;27.824;2023-04-27T06:42:21;98659.41;;;10.19;100.00
9672;BME280;4874;43.568;27.824;2023-04-27T06:44:48;98664.22;;;10.06;100.00
9672;BME280;4874;43.568;27.824;2023-04-27T06:47:14;98668.53;;;10.07;100.00
9672;BME280;4874;43.568;27.824;2023-04-27T06:49:41;98601.66;;;9.86;100.00
9672;BME280;4874;43.568;27.824;2023-04-27T06:52:08;98670.56;;;10.75;100.00
9672;BME280;4874;43.568;27.824;2023-04-27T06:54:34;98671.03;;;10.53;100.00
9672;BME280;4874;43.568;27.824;2023-04-27T06:57:01;98673.16;;;10.67;100.00
9672;BME280;4874;43.568;27.824;2023-04-27T06:59:28;98653.94;;;10.91;100.00
9672;BME280;4874;43.568;27.824;2023-04-27T07:01:55;98674.28;;;10.82;100.00
9672;BME280;4874;43.568;27.824;2023-04-27T07:04:22;98673.91;;;10.77;100.00
9672;BME280;4874;43.568;27.824;2023-04-27T07:06:48;98656.50;;;10.57;100.00
9672;BME280;4874;43.568;27.824;2023-04-27T07:09:15;98669.38;;;10.52;100.00
9672;BME280;4874;43.568;27.824;2023-04-27T07:11:52;98670.13;;;10.80;100.00
9672;BME280;4874;43.568;27.824;2023-04-27T07:14:19;98677.56;;;10.58;100.00
9672;BME280;4874;43.568;27.824;2023-04-27T07:16:45;98682.78;;;10.33;100.00
9672;BME280;4874;43.568;27.824;2023-04-27T07:19:12;98673.84;;;10.51;100.00
9672;BME280;4874;43.568;27.824;2023-04-27T07:21:39;98670.06;;;10.54;100.00
9672;BME280;4874;43.568;27.824;2023-04-27T07:24:06;98677.25;;;10.61;100.00
9672;BME280;4874;43.568;27.824;2023-04-27T07:26:33;98678.47;;;10.85;100.00
9672;BME280;4874;43.568;27.824;2023-04-27T07:28:59;98692.19;;;10.45;100.00
9672;BME280;4874;43.568;27.824;2023-04-27T07:31:29;98696.34;;;10.47;100.00
9672;BME280;4874;43.568;27.824;2023-04-27T07:33:57;98691.00;;;10.57;100.00
9672;BME280;4874;43.568;27.824;2023-04-27T07:36:25;98688.19;;;10.76;100.00
9672;BME280;4874;43.568;27.824;2023-04-27T07:38:52;98689.69;;;10.79;100.00
9672;BME280;4874;43.568;27.824;2023-04-27T07:41:19;98696.59;;;10.89;100.00
9672;BME280;4874;43.568;27.824;2023-04-27T07:43:48;98695.69;;;11.16;100.00
9672;BME280;4874;43.568;27.824;2023-04-27T07:46:17;98700.81;;;11.17;100.00
9672;BME280;4874;43.568;27.824;2023-04-27T07:48:44;98703.72;;;11.06;100.00
9672;BME280;4874;43.568;27.824;2023-04-27T07:51:10;98703.69;;;11.24;100.00
9672;BME280;4874;43.568;27.824;2023-04-27T07:53:41;98700.31;;;11.14;100.00
9672;BME280;4874;43.568;27.824;2023-04-27T07:56:08;98710.66;;;11.25;100.00
9672;BME280;4874;43.568;27.824;2023-04-27T07:58:35;98713.75;;;11.38;100.00
9672;BME280;4874;43.568;27.824;2023-04-27T08:01:03;98721.13;;;11.26;100.00
9672;BME280;4874;43.568;27.824;2023-04-27T08:03:29;98707.22;;;11.07;100.00
9672;BME280;4874;43.568;27.824;2023-04-27T08:05:56;98710.88;;;11.31;100.00
9672;BME280;4874;43.568;27.824;2023-04-27T08:08:23;98699.00;;;11.43;100.00
9672;BME280;4874;43.568;27.824;2023-04-27T08:10:50;98708.28;;;11.39;100.00
9672;BME280;4874;43.568;27.824;2023-04-27T08:13:16;98720.38;;;11.59;100.00
9672;BME280;4874;43.568;27.824;2023-04-27T08:15:43;98715.06;;;11.85;100.00
9672;BME280;4874;43.568;27.824;2023-04-27T08:18:09;98724.09;;;11.92;100.00
9672;BME280;4874;43.568;27.824;2023-04-27T08:20:36;98709.38;;;12.14;100.00
9672;BME280;4874;43.568;27.824;2023-04-27T08:23:03;98721.81;;;12.05;100.00
9672;BME280;4874;43.568;27.824;2023-04-27T08:25:29;98709.69;;;12.52;100.00
9672;BME280;4874;43.568;27.824;2023-04-27T08:27:56;98712.38;;;12.68;99.96
9672;BME280;4874;43.568;27.824;2023-04-27T08:30:23;98722.72;;;12.71;98.09
9672;BME280;4874;43.568;27.824;2023-04-27T08:32:49;98716.59;;;12.95;93.71
9672;BME280;4874;43.568;27.824;2023-04-27T08:35:16;98717.00;;;12.42;91.61
9672;BME280;4874;43.568;27.824;2023-04-27T08:37:43;98704.63;;;12.33;91.99
9672;BME280;4874;43.568;27.824;2023-04-27T08:40:10;98713.38;;;12.67;93.05
9672;BME280;4874;43.568;27.824;2023-04-27T08:42:36;98716.25;;;12.90;90.37
9672;BME280;4874;43.568;27.824;2023-04-27T08:45:05;98718.06;;;12.81;88.83
9672;BME280;4874;43.568;27.824;2023-04-27T08:47:32;98704.75;;;12.89;87.74
9672;BME280;4874;43.568;27.824;2023-04-27T08:50:08;98627.13;;;12.36;85.72
9672;BME280;4874;43.568;27.824;2023-04-27T08:52:35;98720.84;;;12.64;86.21
9672;BME280;4874;43.568;27.824;2023-04-27T08:55:02;98714.56;;;12.65;85.50
9672;BME280;4874;43.568;27.824;2023-04-27T08:57:30;98709.16;;;12.41;86.72
9672;BME280;4874;43.568;27.824;2023-04-27T08:59:57;98740.97;;;12.58;85.45
9672;BME280;4874;43.568;27.824;2023-04-27T09:02:32;98719.41;;;12.20;86.96
9672;BME280;4874;43.568;27.824;2023-04-27T09:04:59;98714.06;;;12.20;88.07
9672;BME280;4874;43.568;27.824;2023-04-27T09:07:25;98706.91;;;12.70;86.95
9672;BME280;4874;43.568;27.824;2023-04-27T09:10:03;98719.88;;;12.81;87.26
9672;BME280;4874;43.568;27.824;2023-04-27T09:12:29;98713.25;;;12.93;87.03
9672;BME280;4874;43.568;27.824;2023-04-27T09:15:00;98698.06;;;12.77;86.91
9672;BME280;4874;43.568;27.824;2023-04-27T09:17:29;98712.06;;;12.79;87.64
9672;BME280;4874;43.568;27.824;2023-04-27T09:20:06;98720.72;;;12.73;88.45
9672;BME280;4874;43.568;27.824;2023-04-27T09:22:45;98709.63;;;13.02;88.28
9672;BME280;4874;43.568;27.824;2023-04-27T09:25:22;98725.72;;;12.84;88.28
9672;BME280;4874;43.568;27.824;2023-04-27T09:27:49;98719.88;;;12.73;89.29
9672;BME280;4874;43.568;27.824;2023-04-27T09:30:16;98718.53;;;12.77;86.96
9672;BME280;4874;43.568;27.824;2023-04-27T09:37:49;98713.72;;;12.72;83.09
9672;BME280;4874;43.568;27.824;2023-04-27T09:40:18;98713.75;;;12.96;83.51
9672;BME280;4874;43.568;27.824;2023-04-27T09:42:45;98702.94;;;12.82;83.53
9672;BME280;4874;43.568;27.824;2023-04-27T09:45:11;98707.75;;;12.94;82.94
9672;BME280;4874;43.568;27.824;2023-04-27T09:47:38;98704.59;;;12.91;81.97
9672;BME280;4874;43.568;27.824;2023-04-27T09:50:06;98703.66;;;13.16;82.56
9672;BME280;4874;43.568;27.824;2023-04-27T09:52:33;98708.47;;;13.13;81.14
9672;BME280;4874;43.568;27.824;2023-04-27T09:55:00;98702.97;;;13.22;81.49
9672;BME280;4874;43.568;27.824;2023-04-27T09:57:33;98693.63;;;13.26;82.09
9672;BME280;4874;43.568;27.824;2023-04-27T10:00:05;98685.63;;;13.34;81.37
9672;BME280;4874;43.568;27.824;2023-04-27T10:03:01;98684.81;;;13.02;83.05
9672;BME280;4874;43.568;27.824;2023-04-27T10:07:53;98684.97;;;13.24;84.05
9672;BME280;4874;43.568;27.824;2023-04-27T10:10:20;98687.41;;;13.66;81.96
9672;BME280;4874;43.568;27.824;2023-04-27T10:12:59;98683.72;;;13.67;80.60
9672;BME280;4874;43.568;27.824;2023-04-27T10:15:26;98685.88;;;13.71;81.17
9672;BME280;4874;43.568;27.824;2023-04-27T10:18:01;98670.44;;;13.59;80.41
9672;BME280;4874;43.568;27.824;2023-04-27T10:20:29;98669.38;;;13.76;80.17
9672;BME280;4874;43.568;27.824;2023-04-27T10:22:56;98689.56;;;13.70;78.88
9672;BME280;4874;43.568;27.824;2023-04-27T10:25:36;98704.78;;;13.38;78.84
9672;BME280;4874;43.568;27.824;2023-04-27T10:28:03;98688.53;;;13.71;79.60
9672;BME280;4874;43.568;27.824;2023-04-27T10:30:31;98692.09;;;14.10;79.31
9672;BME280;4874;43.568;27.824;2023-04-27T10:32:58;98695.72;;;13.79;78.38
9672;BME280;4874;43.568;27.824;2023-04-27T10:38:17;98699.81;;;13.97;78.39
9672;BME280;4874;43.568;27.824;2023-04-27T10:40:44;98698.88;;;13.82;77.81
9672;BME280;4874;43.568;27.824;2023-04-27T10:43:12;98696.69;;;13.86;77.96
9672;BME280;4874;43.568;27.824;2023-04-27T10:45:39;98700.66;;;13.98;77.12
9672;BME280;4874;43.568;27.824;2023-04-27T10:48:06;98694.41;;;13.67;77.17
9672;BME280;4874;43.568;27.824;2023-04-27T10:50:33;98685.31;;;13.92;76.92
9672;BME280;4874;43.568;27.824;2023-04-27T10:53:01;98687.25;;;14.14;77.20
9672;BME280;4874;43.568;27.824;2023-04-27T10:55:29;98687.19;;;14.30;75.99
9672;BME280;4874;43.568;27.824;2023-04-27T10:57:56;98682.25;;;14.50;75.87
9672;BME280;4874;43.568;27.824;2023-04-27T11:00:27;98682.03;;;14.82;75.66
9672;BME280;4874;43.568;27.824;2023-04-27T11:02:55;98683.88;;;14.20;75.67
9672;BME280;4874;43.568;27.824;2023-04-27T11:05:24;98676.88;;;14.19;73.74
9672;BME280;4874;43.568;27.824;2023-04-27T11:08:05;98687.31;;;14.90;73.06
9672;BME280;4874;43.568;27.824;2023-04-27T11:10:32;98683.69;;;15.05;72.55
9672;BME280;4874;43.568;27.824;2023-04-27T11:13:11;98691.78;;;14.97;74.52
9672;BME280;4874;43.568;27.824;2023-04-27T11:15:45;98693.72;;;14.58;74.77
9672;BME280;4874;43.568;27.824;2023-04-27T11:18:12;98679.88;;;15.00;73.89
9672;BME280;4874;43.568;27.824;2023-04-27T11:20:39;98682.25;;;15.40;73.19
9672;BME280;4874;43.568;27.824;2023-04-27T11:23:06;98694.00;;;15.31;71.24
9672;BME280;4874;43.568;27.824;2023-04-27T11:25:33;98691.47;;;14.70;70.62
9672;BME280;4874;43.568;27.824;2023-04-27T11:27:59;98681.47;;;14.64;72.91
9672;BME280;4874;43.568;27.824;2023-04-27T11:30:26;98673.81;;;15.28;71.37
9672;BME280;4874;43.568;27.824;2023-04-27T11:32:52;98694.44;;;14.75;72.33
9672;BME280;4874;43.568;27.824;2023-04-27T11:35:19;98675.03;;;14.28;72.14
9672;BME280;4874;43.568;27.824;2023-04-27T11:37:55;98683.88;;;14.81;73.15
9672;BME280;4874;43.568;27.824;2023-04-27T11:40:21;98675.56;;;14.76;71.55
9672;BME280;4874;43.568;27.824;2023-04-27T11:42:55;98662.97;;;14.85;72.53
9672;BME280;4874;43.568;27.824;2023-04-27T11:45:24;98674.84;;;14.60;73.33
9672;BME280;4874;43.568;27.824;2023-04-27T11:47:50;98687.25;;;14.14;73.66
9672;BME280;4874;43.568;27.824;2023-04-27T11:50:17;98679.09;;;14.07;73.71
9672;BME280;4874;43.568;27.824;2023-04-27T11:52:47;98676.50;;;13.83;74.63
9672;BME280;4874;43.568;27.824;2023-04-27T11:55:14;98691.13;;;13.95;75.70
9672;BME280;4874;43.568;27.824;2023-04-27T11:57:43;98685.47;;;13.98;74.91
9672;BME280;4874;43.568;27.824;2023-04-27T12:00:10;98685.72;;;14.19;76.09
9672;BME280;4874;43.568;27.824;2023-04-27T12:02:37;98684.66;;;14.90;75.19
9672;BME280;4874;43.568;27.824;2023-04-27T12:05:04;98682.56;;;15.00;72.86
9672;BME280;4874;43.568;27.824;2023-04-27T12:07:32;98687.00;;;14.40;72.78
9672;BME280;4874;43.568;27.824;2023-04-27T12:09:59;98693.38;;;14.23;74.21
9672;BME280;4874;43.568;27.824;2023-04-27T12:12:26;98686.66;;;14.35;74.16
9672;BME280;4874;43.568;27.824;2023-04-27T12:14:53;98668.84;;;13.80;75.50
9672;BME280;4874;43.568;27.824;2023-04-27T12:17:19;98691.31;;;14.02;76.53
9672;BME280;4874;43.568;27.824;2023-04-27T12:19:46;98689.66;;;14.40;75.26
9672;BME280;4874;43.568;27.824;2023-04-27T12:22:13;98685.84;;;14.65;74.17
9672;BME280;4874;43.568;27.824;2023-04-27T12:24:39;98695.06;;;14.54;74.69
9672;BME280;4874;43.568;27.824;2023-04-27T12:27:06;98698.38;;;14.17;75.48
9672;BME280;4874;43.568;27.824;2023-04-27T12:29:33;98699.50;;;13.92;76.56
9672;BME280;4874;43.568;27.824;2023-04-27T12:32:00;98696.16;;;13.98;77.50
9672;BME280;4874;43.568;27.824;2023-04-27T12:34:26;98694.25;;;14.54;76.54
9672;BME280;4874;43.568;27.824;2023-04-27T12:36:56;98688.38;;;15.03;74.51
9672;BME280;4874;43.568;27.824;2023-04-27T12:39:23;98672.91;;;14.99;74.43
9672;BME280;4874;43.568;27.824;2023-04-27T12:41:52;98695.72;;;14.17;76.95
9672;BME280;4874;43.568;27.824;2023-04-27T12:44:19;98692.59;;;14.06;76.85
9672;BME280;4874;43.568;27.824;2023-04-27T12:46:46;98705.22;;;13.73;77.69
9672;BME280;4874;43.568;27.824;2023-04-27T12:49:16;98711.75;;;13.55;78.53
9672;BME280;4874;43.568;27.824;2023-04-27T12:51:43;98703.75;;;13.55;79.15
9672;BME280;4874;43.568;27.824;2023-04-27T12:54:12;98704.84;;;13.92;79.88
9672;BME280;4874;43.568;27.824;2023-04-27T12:56:39;98701.84;;;13.87;79.28
9672;BME280;4874;43.568;27.824;2023-04-27T12:59:07;98699.84;;;13.89;79.09
9672;BME280;4874;43.568;27.824;2023-04-27T13:01:34;98712.22;;;13.82;78.63
9672;BME280;4874;43.568;27.824;2023-04-27T13:04:01;98713.69;;;13.93;79.24
9672;BME280;4874;43.568;27.824;2023-04-27T13:06:29;98710.44;;;14.13;79.25
9672;BME280;4874;43.568;27.824;2023-04-27T13:08:56;98702.13;;;14.08;79.36
9672;BME280;4874;43.568;27.824;2023-04-27T13:11:23;98709.41;;;14.23;78.96
9672;BME280;4874;43.568;27.824;2023-04-27T13:13:50;98703.31;;;13.98;79.16
9672;BME280;4874;43.568;27.824;2023-04-27T13:16:17;98708.81;;;14.04;79.49
9672;BME280;4874;43.568;27.824;2023-04-27T13:18:46;98703.63;;;14.50;78.72
9672;BME280;4874;43.568;27.824;2023-04-27T13:21:15;98698.56;;;14.85;76.79